sensor_id;sensor_type;location;lat;lon;timestamp;P1;durP1;ratioP1;P2;durP2;ratioP2
4585;SDS011;2305;50.118;8.952;2022-11-02T00:00:13;7.57;;;3.30;;
4585;SDS011;2305;50.118;8.952;2022-11-02T00:02:42;11.40;;;3.33;;
4585;SDS011;2305;50.118;8.952;2022-11-02T00:05:10;7.90;;;3.60;;
4585;SDS011;2305;50.118;8.952;2022-11-02T00:07:40;7.40;;;3.50;;
4585;SDS011;2305;50.118;8.952;2022-11-02T00:10:08;13.83;;;3.43;;
4585;SDS011;2305;50.118;8.952;2022-11-02T00:12:37;9.57;;;3.60;;
4585;SDS011;2305;50.118;8.952;2022-11-02T00:15:07;9.20;;;3.80;;
4585;SDS011;2305;50.118;8.952;2022-11-02T00:17:35;11.10;;;3.70;;
4585;SDS011;2305;50.118;8.952;2022-11-02T00:20:05;8.03;;;3.10;;
4585;SDS011;2305;50.118;8.952;2022-11-02T00:22:35;8.93;;;4.23;;
4585;SDS011;2305;50.118;8.952;2022-11-02T00:25:04;6.63;;;3.10;;
4585;SDS011;2305;50.118;8.952;2022-11-02T00:27:34;9.23;;;3.53;;
4585;SDS011;2305;50.118;8.952;2022-11-02T00:30:01;10.33;;;3.47;;
4585;SDS011;2305;50.118;8.952;2022-11-02T00:32:31;17.03;;;3.53;;
4585;SDS011;2305;50.118;8.952;2022-11-02T00:34:59;12.00;;;4.03;;
4585;SDS011;2305;50.118;8.952;2022-11-02T00:37:27;7.50;;;2.70;;
4585;SDS011;2305;50.118;8.952;2022-11-02T00:39:55;9.80;;;3.03;;
4585;SDS011;2305;50.118;8.952;2022-11-02T00:42:23;8.40;;;3.03;;
4585;SDS011;2305;50.118;8.952;2022-11-02T00:44:51;6.03;;;3.07;;
4585;SDS011;2305;50.118;8.952;2022-11-02T00:47:18;7.33;;;2.70;;
4585;SDS011;2305;50.118;8.952;2022-11-02T00:49:50;9.30;;;3.20;;
4585;SDS011;2305;50.118;8.952;2022-11-02T00:52:18;5.27;;;3.63;;
4585;SDS011;2305;50.118;8.952;2022-11-02T00:54:49;7.73;;;3.30;;
4585;SDS011;2305;50.118;8.952;2022-11-02T00:57:17;4.70;;;2.50;;
4585;SDS011;2305;50.118;8.952;2022-11-02T00:59:45;12.23;;;3.50;;
4585;SDS011;2305;50.118;8.952;2022-11-02T01:02:15;10.27;;;2.50;;
4585;SDS011;2305;50.118;8.952;2022-11-02T01:04:43;9.23;;;2.83;;
4585;SDS011;2305;50.118;8.952;2022-11-02T01:07:12;5.87;;;2.57;;
4585;SDS011;2305;50.118;8.952;2022-11-02T01:09:41;6.53;;;3.20;;
4585;SDS011;2305;50.118;8.952;2022-11-02T01:12:09;8.37;;;3.27;;
4585;SDS011;2305;50.118;8.952;2022-11-02T01:14:38;5.43;;;2.70;;
4585;SDS011;2305;50.118;8.952;2022-11-02T01:17:06;5.63;;;2.73;;
4585;SDS011;2305;50.118;8.952;2022-11-02T01:19:34;5.43;;;2.27;;
4585;SDS011;2305;50.118;8.952;2022-11-02T01:22:02;9.63;;;2.77;;
4585;SDS011;2305;50.118;8.952;2022-11-02T01:24:33;8.23;;;2.90;;
4585;SDS011;2305;50.118;8.952;2022-11-02T01:27:01;6.40;;;2.60;;
4585;SDS011;2305;50.118;8.952;2022-11-02T01:29:30;8.17;;;2.60;;
4585;SDS011;2305;50.118;8.952;2022-11-02T01:31:59;7.23;;;2.33;;
4585;SDS011;2305;50.118;8.952;2022-11-02T01:34:26;4.57;;;2.53;;
4585;SDS011;2305;50.118;8.952;2022-11-02T01:36:54;4.50;;;2.37;;
4585;SDS011;2305;50.118;8.952;2022-11-02T01:39:24;11.33;;;3.03;;
4585;SDS011;2305;50.118;8.952;2022-11-02T01:41:53;5.20;;;2.20;;
4585;SDS011;2305;50.118;8.952;2022-11-02T01:44:25;7.97;;;2.30;;
4585;SDS011;2305;50.118;8.952;2022-11-02T01:46:56;5.73;;;1.97;;
4585;SDS011;2305;50.118;8.952;2022-11-02T01:49:31;10.03;;;2.50;;
4585;SDS011;2305;50.118;8.952;2022-11-02T01:52:03;6.07;;;2.40;;
4585;SDS011;2305;50.118;8.952;2022-11-02T01:54:38;8.13;;;2.13;;
4585;SDS011;2305;50.118;8.952;2022-11-02T01:57:11;9.93;;;2.57;;
4585;SDS011;2305;50.118;8.952;2022-11-02T01:59:42;8.73;;;2.37;;
4585;SDS011;2305;50.118;8.952;2022-11-02T02:02:14;5.40;;;2.23;;
4585;SDS011;2305;50.118;8.952;2022-11-02T02:04:44;11.00;;;2.40;;
4585;SDS011;2305;50.118;8.952;2022-11-02T02:07:17;7.83;;;2.53;;
4585;SDS011;2305;50.118;8.952;2022-11-02T02:09:49;7.20;;;2.20;;
4585;SDS011;2305;50.118;8.952;2022-11-02T02:12:23;6.90;;;2.40;;
4585;SDS011;2305;50.118;8.952;2022-11-02T02:14:52;8.37;;;2.80;;
4585;SDS011;2305;50.118;8.952;2022-11-02T02:17:27;14.73;;;2.27;;
4585;SDS011;2305;50.118;8.952;2022-11-02T02:20:06;6.10;;;2.67;;
4585;SDS011;2305;50.118;8.952;2022-11-02T02:25:43;9.43;;;3.03;;
4585;SDS011;2305;50.118;8.952;2022-11-02T02:28:22;5.37;;;2.33;;
4585;SDS011;2305;50.118;8.952;2022-11-02T02:30:57;6.43;;;2.67;;
4585;SDS011;2305;50.118;8.952;2022-11-02T02:33:29;6.20;;;2.07;;
4585;SDS011;2305;50.118;8.952;2022-11-02T02:36:03;8.43;;;2.53;;
4585;SDS011;2305;50.118;8.952;2022-11-02T02:38:40;6.03;;;2.43;;
4585;SDS011;2305;50.118;8.952;2022-11-02T02:41:12;7.37;;;2.60;;
4585;SDS011;2305;50.118;8.952;2022-11-02T02:43:48;7.30;;;2.27;;
4585;SDS011;2305;50.118;8.952;2022-11-02T02:46:19;8.23;;;2.60;;
4585;SDS011;2305;50.118;8.952;2022-11-02T02:48:50;11.90;;;2.60;;
4585;SDS011;2305;50.118;8.952;2022-11-02T02:51:22;6.60;;;2.20;;
4585;SDS011;2305;50.118;8.952;2022-11-02T02:53:57;3.97;;;2.30;;
4585;SDS011;2305;50.118;8.952;2022-11-02T02:56:28;6.27;;;2.70;;
4585;SDS011;2305;50.118;8.952;2022-11-02T02:59:03;4.00;;;2.13;;
4585;SDS011;2305;50.118;8.952;2022-11-02T03:01:34;3.90;;;1.90;;
4585;SDS011;2305;50.118;8.952;2022-11-02T03:04:08;10.27;;;2.67;;
4585;SDS011;2305;50.118;8.952;2022-11-02T03:06:36;8.23;;;2.17;;
4585;SDS011;2305;50.118;8.952;2022-11-02T03:09:08;6.73;;;2.50;;
4585;SDS011;2305;50.118;8.952;2022-11-02T03:11:46;5.10;;;2.43;;
4585;SDS011;2305;50.118;8.952;2022-11-02T03:14:23;8.00;;;2.50;;
4585;SDS011;2305;50.118;8.952;2022-11-02T03:17:09;6.20;;;2.47;;
4585;SDS011;2305;50.118;8.952;2022-11-02T03:19:48;10.00;;;2.90;;
4585;SDS011;2305;50.118;8.952;2022-11-02T03:22:22;7.23;;;2.70;;
4585;SDS011;2305;50.118;8.952;2022-11-02T03:24:57;6.83;;;3.00;;
4585;SDS011;2305;50.118;8.952;2022-11-02T03:27:35;14.47;;;2.63;;
4585;SDS011;2305;50.118;8.952;2022-11-02T03:30:10;9.13;;;2.43;;
4585;SDS011;2305;50.118;8.952;2022-11-02T03:32:47;9.23;;;2.27;;
4585;SDS011;2305;50.118;8.952;2022-11-02T03:35:24;8.20;;;2.47;;
4585;SDS011;2305;50.118;8.952;2022-11-02T03:37:59;7.73;;;2.20;;
4585;SDS011;2305;50.118;8.952;2022-11-02T03:40:33;8.53;;;2.00;;
4585;SDS011;2305;50.118;8.952;2022-11-02T03:43:05;4.60;;;1.90;;
4585;SDS011;2305;50.118;8.952;2022-11-02T03:45:37;4.80;;;2.23;;
4585;SDS011;2305;50.118;8.952;2022-11-02T03:48:09;13.27;;;2.97;;
4585;SDS011;2305;50.118;8.952;2022-11-02T03:50:41;6.60;;;2.20;;
4585;SDS011;2305;50.118;8.952;2022-11-02T03:53:14;6.97;;;2.40;;
4585;SDS011;2305;50.118;8.952;2022-11-02T03:55:48;9.83;;;2.10;;
4585;SDS011;2305;50.118;8.952;2022-11-02T03:58:19;11.37;;;3.10;;
4585;SDS011;2305;50.118;8.952;2022-11-02T04:00:50;8.70;;;2.40;;
4585;SDS011;2305;50.118;8.952;2022-11-02T04:03:22;7.10;;;2.10;;
4585;SDS011;2305;50.118;8.952;2022-11-02T04:05:52;7.77;;;2.17;;
4585;SDS011;2305;50.118;8.952;2022-11-02T04:08:30;9.93;;;2.87;;
4585;SDS011;2305;50.118;8.952;2022-11-02T04:11:05;7.00;;;2.30;;
4585;SDS011;2305;50.118;8.952;2022-11-02T04:13:54;10.33;;;2.10;;
4585;SDS011;2305;50.118;8.952;2022-11-02T04:16:46;5.73;;;1.90;;
4585;SDS011;2305;50.118;8.952;2022-11-02T04:19:23;7.10;;;2.00;;
4585;SDS011;2305;50.118;8.952;2022-11-02T04:21:58;7.30;;;2.67;;
4585;SDS011;2305;50.118;8.952;2022-11-02T04:24:47;23.70;;;13.80;;
4585;SDS011;2305;50.118;8.952;2022-11-02T04:27:36;33.67;;;18.43;;
4585;SDS011;2305;50.118;8.952;2022-11-02T04:30:07;11.70;;;6.40;;
4585;SDS011;2305;50.118;8.952;2022-11-02T04:32:37;15.37;;;3.60;;
4585;SDS011;2305;50.118;8.952;2022-11-02T04:35:26;6.97;;;2.00;;
4585;SDS011;2305;50.118;8.952;2022-11-02T04:37:54;12.23;;;2.63;;
4585;SDS011;2305;50.118;8.952;2022-11-02T04:40:40;6.00;;;2.10;;
4585;SDS011;2305;50.118;8.952;2022-11-02T04:43:08;5.60;;;2.20;;
4585;SDS011;2305;50.118;8.952;2022-11-02T04:45:37;8.30;;;2.30;;
4585;SDS011;2305;50.118;8.952;2022-11-02T04:48:08;6.90;;;2.20;;
4585;SDS011;2305;50.118;8.952;2022-11-02T04:50:37;8.73;;;2.30;;
4585;SDS011;2305;50.118;8.952;2022-11-02T04:53:06;5.83;;;1.97;;
4585;SDS011;2305;50.118;8.952;2022-11-02T04:55:36;7.83;;;2.00;;
4585;SDS011;2305;50.118;8.952;2022-11-02T04:58:05;5.90;;;2.37;;
4585;SDS011;2305;50.118;8.952;2022-11-02T05:00:33;10.70;;;2.90;;
4585;SDS011;2305;50.118;8.952;2022-11-02T05:03:01;5.93;;;1.80;;
4585;SDS011;2305;50.118;8.952;2022-11-02T05:05:37;8.03;;;2.40;;
4585;SDS011;2305;50.118;8.952;2022-11-02T05:08:05;5.90;;;1.90;;
4585;SDS011;2305;50.118;8.952;2022-11-02T05:10:34;8.23;;;3.33;;
4585;SDS011;2305;50.118;8.952;2022-11-02T05:13:03;7.53;;;1.87;;
4585;SDS011;2305;50.118;8.952;2022-11-02T05:15:34;5.83;;;2.30;;
4585;SDS011;2305;50.118;8.952;2022-11-02T05:18:05;9.47;;;2.77;;
4585;SDS011;2305;50.118;8.952;2022-11-02T05:20:34;10.53;;;2.13;;
4585;SDS011;2305;50.118;8.952;2022-11-02T05:23:05;7.70;;;3.30;;
4585;SDS011;2305;50.118;8.952;2022-11-02T05:25:33;12.73;;;7.67;;
4585;SDS011;2305;50.118;8.952;2022-11-02T05:28:01;11.87;;;6.00;;
4585;SDS011;2305;50.118;8.952;2022-11-02T05:30:30;10.50;;;3.00;;
4585;SDS011;2305;50.118;8.952;2022-11-02T05:32:58;3.37;;;2.07;;
4585;SDS011;2305;50.118;8.952;2022-11-02T05:35:28;3.23;;;1.80;;
4585;SDS011;2305;50.118;8.952;2022-11-02T05:37:56;3.20;;;1.93;;
4585;SDS011;2305;50.118;8.952;2022-11-02T05:40:25;6.57;;;2.20;;
4585;SDS011;2305;50.118;8.952;2022-11-02T05:42:57;13.70;;;2.33;;
4585;SDS011;2305;50.118;8.952;2022-11-02T05:45:28;7.83;;;2.47;;
4585;SDS011;2305;50.118;8.952;2022-11-02T05:47:58;19.83;;;3.07;;
4585;SDS011;2305;50.118;8.952;2022-11-02T05:50:27;6.03;;;1.63;;
4585;SDS011;2305;50.118;8.952;2022-11-02T05:52:57;6.27;;;1.97;;
4585;SDS011;2305;50.118;8.952;2022-11-02T05:55:27;11.10;;;2.53;;
4585;SDS011;2305;50.118;8.952;2022-11-02T05:57:55;6.73;;;2.30;;
4585;SDS011;2305;50.118;8.952;2022-11-02T06:00:22;5.53;;;2.33;;
4585;SDS011;2305;50.118;8.952;2022-11-02T06:02:54;7.57;;;2.40;;
4585;SDS011;2305;50.118;8.952;2022-11-02T06:05:26;8.00;;;2.70;;
4585;SDS011;2305;50.118;8.952;2022-11-02T06:07:56;12.57;;;2.40;;
4585;SDS011;2305;50.118;8.952;2022-11-02T06:10:25;11.20;;;2.13;;
4585;SDS011;2305;50.118;8.952;2022-11-02T06:12:55;6.53;;;2.47;;
4585;SDS011;2305;50.118;8.952;2022-11-02T06:15:23;11.23;;;2.90;;
4585;SDS011;2305;50.118;8.952;2022-11-02T06:17:51;10.30;;;2.63;;
4585;SDS011;2305;50.118;8.952;2022-11-02T06:20:19;10.90;;;3.33;;
4585;SDS011;2305;50.118;8.952;2022-11-02T06:22:48;6.70;;;2.40;;
4585;SDS011;2305;50.118;8.952;2022-11-02T06:25:16;6.37;;;3.90;;
4585;SDS011;2305;50.118;8.952;2022-11-02T06:27:50;8.37;;;2.67;;
4585;SDS011;2305;50.118;8.952;2022-11-02T06:30:19;17.07;;;2.80;;
4585;SDS011;2305;50.118;8.952;2022-11-02T06:32:47;17.90;;;2.23;;
4585;SDS011;2305;50.118;8.952;2022-11-02T06:35:15;7.23;;;2.00;;
4585;SDS011;2305;50.118;8.952;2022-11-02T06:37:44;16.23;;;2.27;;
4585;SDS011;2305;50.118;8.952;2022-11-02T06:40:12;8.80;;;2.83;;
4585;SDS011;2305;50.118;8.952;2022-11-02T06:42:41;16.63;;;2.57;;
4585;SDS011;2305;50.118;8.952;2022-11-02T06:45:30;7.00;;;3.00;;
4585;SDS011;2305;50.118;8.952;2022-11-02T06:47:58;8.93;;;3.63;;
4585;SDS011;2305;50.118;8.952;2022-11-02T06:50:26;8.37;;;3.00;;
4585;SDS011;2305;50.118;8.952;2022-11-02T06:52:55;7.50;;;2.30;;
4585;SDS011;2305;50.118;8.952;2022-11-02T06:55:22;10.93;;;2.23;;
4585;SDS011;2305;50.118;8.952;2022-11-02T06:57:51;14.40;;;2.77;;
4585;SDS011;2305;50.118;8.952;2022-11-02T07:00:19;16.37;;;2.67;;
4585;SDS011;2305;50.118;8.952;2022-11-02T07:02:58;7.73;;;2.80;;
4585;SDS011;2305;50.118;8.952;2022-11-02T07:05:28;12.87;;;2.83;;
4585;SDS011;2305;50.118;8.952;2022-11-02T07:07:56;9.37;;;2.47;;
4585;SDS011;2305;50.118;8.952;2022-11-02T07:10:24;6.70;;;2.60;;
4585;SDS011;2305;50.118;8.952;2022-11-02T07:12:53;9.20;;;3.23;;
4585;SDS011;2305;50.118;8.952;2022-11-02T07:15:23;4.43;;;1.97;;
4585;SDS011;2305;50.118;8.952;2022-11-02T07:17:52;9.77;;;3.00;;
4585;SDS011;2305;50.118;8.952;2022-11-02T07:20:21;9.17;;;2.70;;
4585;SDS011;2305;50.118;8.952;2022-11-02T07:22:52;8.73;;;2.47;;
4585;SDS011;2305;50.118;8.952;2022-11-02T07:25:21;10.70;;;2.53;;
4585;SDS011;2305;50.118;8.952;2022-11-02T07:27:50;12.30;;;3.00;;
4585;SDS011;2305;50.118;8.952;2022-11-02T07:30:18;12.57;;;2.67;;
4585;SDS011;2305;50.118;8.952;2022-11-02T07:32:46;7.87;;;2.33;;
4585;SDS011;2305;50.118;8.952;2022-11-02T07:35:14;6.50;;;2.27;;
4585;SDS011;2305;50.118;8.952;2022-11-02T07:37:46;8.30;;;2.63;;
4585;SDS011;2305;50.118;8.952;2022-11-02T07:40:21;10.60;;;2.07;;
4585;SDS011;2305;50.118;8.952;2022-11-02T07:42:49;6.50;;;1.70;;
4585;SDS011;2305;50.118;8.952;2022-11-02T07:45:26;6.20;;;1.83;;
4585;SDS011;2305;50.118;8.952;2022-11-02T07:47:54;8.77;;;2.20;;
4585;SDS011;2305;50.118;8.952;2022-11-02T07:50:25;7.70;;;2.20;;
4585;SDS011;2305;50.118;8.952;2022-11-02T07:52:55;5.83;;;2.43;;
4585;SDS011;2305;50.118;8.952;2022-11-02T07:55:25;8.20;;;2.83;;
4585;SDS011;2305;50.118;8.952;2022-11-02T07:57:57;8.83;;;2.13;;
4585;SDS011;2305;50.118;8.952;2022-11-02T08:00:27;11.47;;;2.20;;
4585;SDS011;2305;50.118;8.952;2022-11-02T08:02:58;7.10;;;2.30;;
4585;SDS011;2305;50.118;8.952;2022-11-02T08:05:32;11.60;;;2.83;;
4585;SDS011;2305;50.118;8.952;2022-11-02T08:08:03;11.57;;;2.53;;
4585;SDS011;2305;50.118;8.952;2022-11-02T08:10:33;11.43;;;2.27;;
4585;SDS011;2305;50.118;8.952;2022-11-02T08:13:05;8.07;;;1.90;;
4585;SDS011;2305;50.118;8.952;2022-11-02T08:15:37;10.97;;;2.30;;
4585;SDS011;2305;50.118;8.952;2022-11-02T08:18:06;6.83;;;2.37;;
4585;SDS011;2305;50.118;8.952;2022-11-02T08:20:36;8.53;;;2.13;;
4585;SDS011;2305;50.118;8.952;2022-11-02T08:23:05;8.40;;;2.10;;
4585;SDS011;2305;50.118;8.952;2022-11-02T08:25:34;11.00;;;2.27;;
4585;SDS011;2305;50.118;8.952;2022-11-02T08:28:03;7.40;;;2.20;;
4585;SDS011;2305;50.118;8.952;2022-11-02T08:30:34;5.60;;;1.90;;
4585;SDS011;2305;50.118;8.952;2022-11-02T08:33:02;10.00;;;2.10;;
4585;SDS011;2305;50.118;8.952;2022-11-02T08:35:31;6.83;;;2.50;;
4585;SDS011;2305;50.118;8.952;2022-11-02T08:38:00;5.73;;;2.30;;
4585;SDS011;2305;50.118;8.952;2022-11-02T08:40:30;10.27;;;2.37;;
4585;SDS011;2305;50.118;8.952;2022-11-02T08:43:00;14.67;;;2.67;;
4585;SDS011;2305;50.118;8.952;2022-11-02T08:45:29;4.00;;;2.00;;
4585;SDS011;2305;50.118;8.952;2022-11-02T08:48:18;7.57;;;2.37;;
4585;SDS011;2305;50.118;8.952;2022-11-02T08:50:48;6.17;;;1.73;;
4585;SDS011;2305;50.118;8.952;2022-11-02T08:53:16;5.63;;;2.33;;
4585;SDS011;2305;50.118;8.952;2022-11-02T08:55:45;10.20;;;2.33;;
4585;SDS011;2305;50.118;8.952;2022-11-02T08:58:13;5.70;;;1.63;;
4585;SDS011;2305;50.118;8.952;2022-11-02T09:00:41;11.20;;;2.50;;
4585;SDS011;2305;50.118;8.952;2022-11-02T09:03:10;11.70;;;2.60;;
4585;SDS011;2305;50.118;8.952;2022-11-02T09:05:40;7.00;;;2.07;;
4585;SDS011;2305;50.118;8.952;2022-11-02T09:08:12;8.13;;;1.87;;
4585;SDS011;2305;50.118;8.952;2022-11-02T09:10:42;9.60;;;1.83;;
4585;SDS011;2305;50.118;8.952;2022-11-02T09:13:13;9.40;;;1.93;;
4585;SDS011;2305;50.118;8.952;2022-11-02T09:15:43;11.47;;;2.20;;
4585;SDS011;2305;50.118;8.952;2022-11-02T09:18:11;7.10;;;2.20;;
4585;SDS011;2305;50.118;8.952;2022-11-02T09:20:39;9.03;;;2.43;;
4585;SDS011;2305;50.118;8.952;2022-11-02T09:23:07;6.93;;;2.10;;
4585;SDS011;2305;50.118;8.952;2022-11-02T09:25:35;8.73;;;2.20;;
4585;SDS011;2305;50.118;8.952;2022-11-02T09:28:03;9.83;;;2.33;;
4585;SDS011;2305;50.118;8.952;2022-11-02T09:30:32;10.80;;;2.67;;
4585;SDS011;2305;50.118;8.952;2022-11-02T09:33:01;3.30;;;1.53;;
4585;SDS011;2305;50.118;8.952;2022-11-02T09:35:32;10.50;;;2.30;;
4585;SDS011;2305;50.118;8.952;2022-11-02T09:38:03;8.77;;;3.57;;
4585;SDS011;2305;50.118;8.952;2022-11-02T09:40:34;5.00;;;2.10;;
4585;SDS011;2305;50.118;8.952;2022-11-02T09:43:05;12.10;;;2.50;;
4585;SDS011;2305;50.118;8.952;2022-11-02T09:45:43;11.63;;;2.13;;
4585;SDS011;2305;50.118;8.952;2022-11-02T09:48:20;9.33;;;2.10;;
4585;SDS011;2305;50.118;8.952;2022-11-02T09:50:55;11.30;;;2.30;;
4585;SDS011;2305;50.118;8.952;2022-11-02T09:53:31;9.40;;;1.90;;
4585;SDS011;2305;50.118;8.952;2022-11-02T09:56:06;10.13;;;2.13;;
4585;SDS011;2305;50.118;8.952;2022-11-02T09:58:36;8.20;;;2.50;;
4585;SDS011;2305;50.118;8.952;2022-11-02T10:01:21;10.63;;;2.40;;
4585;SDS011;2305;50.118;8.952;2022-11-02T10:07:12;10.47;;;2.50;;
4585;SDS011;2305;50.118;8.952;2022-11-02T10:09:52;13.73;;;3.37;;
4585;SDS011;2305;50.118;8.952;2022-11-02T10:12:23;11.77;;;2.50;;
4585;SDS011;2305;50.118;8.952;2022-11-02T10:15:03;11.60;;;2.10;;
4585;SDS011;2305;50.118;8.952;2022-11-02T10:17:38;7.70;;;1.60;;
4585;SDS011;2305;50.118;8.952;2022-11-02T10:20:25;8.10;;;1.80;;
4585;SDS011;2305;50.118;8.952;2022-11-02T10:22:56;8.00;;;2.30;;
4585;SDS011;2305;50.118;8.952;2022-11-02T10:25:30;11.27;;;2.30;;
4585;SDS011;2305;50.118;8.952;2022-11-02T10:27:59;5.33;;;1.87;;
4585;SDS011;2305;50.118;8.952;2022-11-02T10:30:35;8.10;;;2.30;;
4585;SDS011;2305;50.118;8.952;2022-11-02T10:33:09;7.90;;;2.03;;
4585;SDS011;2305;50.118;8.952;2022-11-02T10:35:42;8.07;;;1.83;;
4585;SDS011;2305;50.118;8.952;2022-11-02T10:38:40;7.60;;;1.70;;
4585;SDS011;2305;50.118;8.952;2022-11-02T10:41:21;4.70;;;1.63;;
4585;SDS011;2305;50.118;8.952;2022-11-02T10:44:17;12.60;;;2.30;;
4585;SDS011;2305;50.118;8.952;2022-11-02T10:46:59;8.73;;;1.50;;
4585;SDS011;2305;50.118;8.952;2022-11-02T10:49:59;11.60;;;1.97;;
4585;SDS011;2305;50.118;8.952;2022-11-02T10:52:40;6.77;;;1.90;;
4585;SDS011;2305;50.118;8.952;2022-11-02T10:55:13;9.47;;;1.97;;
4585;SDS011;2305;50.118;8.952;2022-11-02T10:57:50;4.40;;;1.83;;
4585;SDS011;2305;50.118;8.952;2022-11-02T11:00:21;4.53;;;1.80;;
4585;SDS011;2305;50.118;8.952;2022-11-02T11:05:40;11.93;;;2.60;;
4585;SDS011;2305;50.118;8.952;2022-11-02T11:08:28;5.60;;;2.03;;
4585;SDS011;2305;50.118;8.952;2022-11-02T11:11:12;4.33;;;1.57;;
4585;SDS011;2305;50.118;8.952;2022-11-02T11:13:42;3.90;;;1.50;;
4585;SDS011;2305;50.118;8.952;2022-11-02T11:16:39;6.80;;;1.90;;
4585;SDS011;2305;50.118;8.952;2022-11-02T11:19:22;9.73;;;2.03;;
4585;SDS011;2305;50.118;8.952;2022-11-02T11:22:24;9.00;;;2.23;;
4585;SDS011;2305;50.118;8.952;2022-11-02T11:24:55;8.30;;;1.73;;
4585;SDS011;2305;50.118;8.952;2022-11-02T11:27:53;16.87;;;2.30;;
4585;SDS011;2305;50.118;8.952;2022-11-02T11:30:24;7.10;;;1.60;;
4585;SDS011;2305;50.118;8.952;2022-11-02T11:33:14;13.13;;;1.60;;
4585;SDS011;2305;50.118;8.952;2022-11-02T11:35:47;9.00;;;2.10;;
4585;SDS011;2305;50.118;8.952;2022-11-02T11:38:18;6.03;;;1.40;;
4585;SDS011;2305;50.118;8.952;2022-11-02T11:40:50;4.83;;;1.90;;
4585;SDS011;2305;50.118;8.952;2022-11-02T11:43:20;11.17;;;2.17;;
4585;SDS011;2305;50.118;8.952;2022-11-02T11:45:55;9.00;;;2.17;;
4585;SDS011;2305;50.118;8.952;2022-11-02T11:48:33;12.13;;;2.07;;
4585;SDS011;2305;50.118;8.952;2022-11-02T11:51:17;9.07;;;1.80;;
4585;SDS011;2305;50.118;8.952;2022-11-02T11:54:08;10.40;;;1.70;;
4585;SDS011;2305;50.118;8.952;2022-11-02T11:56:44;5.10;;;1.80;;
4585;SDS011;2305;50.118;8.952;2022-11-02T11:59:20;8.30;;;2.43;;
4585;SDS011;2305;50.118;8.952;2022-11-02T12:01:51;24.23;;;2.27;;
4585;SDS011;2305;50.118;8.952;2022-11-02T12:04:29;4.80;;;1.83;;
4585;SDS011;2305;50.118;8.952;2022-11-02T12:07:13;5.33;;;2.63;;
4585;SDS011;2305;50.118;8.952;2022-11-02T12:09:58;5.70;;;1.63;;
4585;SDS011;2305;50.118;8.952;2022-11-02T12:12:35;2.83;;;1.60;;
4585;SDS011;2305;50.118;8.952;2022-11-02T12:15:16;5.50;;;1.67;;
4585;SDS011;2305;50.118;8.952;2022-11-02T12:17:57;8.97;;;1.73;;
4585;SDS011;2305;50.118;8.952;2022-11-02T12:20:39;10.83;;;2.00;;
4585;SDS011;2305;50.118;8.952;2022-11-02T12:23:21;13.77;;;2.37;;
4585;SDS011;2305;50.118;8.952;2022-11-02T12:26:03;9.97;;;2.47;;
4585;SDS011;2305;50.118;8.952;2022-11-02T12:28:42;6.63;;;2.07;;
4585;SDS011;2305;50.118;8.952;2022-11-02T12:31:20;5.80;;;1.63;;
4585;SDS011;2305;50.118;8.952;2022-11-02T12:34:01;9.17;;;2.10;;
4585;SDS011;2305;50.118;8.952;2022-11-02T12:36:43;10.43;;;2.27;;
4585;SDS011;2305;50.118;8.952;2022-11-02T12:39:42;8.80;;;2.17;;
4585;SDS011;2305;50.118;8.952;2022-11-02T12:42:24;4.40;;;1.43;;
4585;SDS011;2305;50.118;8.952;2022-11-02T12:45:05;8.97;;;1.80;;
4585;SDS011;2305;50.118;8.952;2022-11-02T12:47:48;7.53;;;1.77;;
4585;SDS011;2305;50.118;8.952;2022-11-02T12:50:24;12.00;;;1.87;;
4585;SDS011;2305;50.118;8.952;2022-11-02T12:53:05;6.93;;;1.87;;
4585;SDS011;2305;50.118;8.952;2022-11-02T12:55:47;5.03;;;2.00;;
4585;SDS011;2305;50.118;8.952;2022-11-02T12:58:21;7.50;;;1.83;;
4585;SDS011;2305;50.118;8.952;2022-11-02T13:00:54;4.53;;;1.70;;
4585;SDS011;2305;50.118;8.952;2022-11-02T13:03:27;9.40;;;2.10;;
4585;SDS011;2305;50.118;8.952;2022-11-02T13:06:02;5.80;;;1.80;;
4585;SDS011;2305;50.118;8.952;2022-11-02T13:08:37;4.67;;;1.83;;
4585;SDS011;2305;50.118;8.952;2022-11-02T13:11:11;5.70;;;1.80;;
4585;SDS011;2305;50.118;8.952;2022-11-02T13:13:45;5.57;;;1.70;;
4585;SDS011;2305;50.118;8.952;2022-11-02T13:16:16;6.17;;;1.90;;
4585;SDS011;2305;50.118;8.952;2022-11-02T13:18:45;11.90;;;2.07;;
4585;SDS011;2305;50.118;8.952;2022-11-02T13:21:18;11.50;;;1.90;;
4585;SDS011;2305;50.118;8.952;2022-11-02T13:23:54;5.97;;;1.87;;
4585;SDS011;2305;50.118;8.952;2022-11-02T13:26:25;8.63;;;1.90;;
4585;SDS011;2305;50.118;8.952;2022-11-02T13:28:58;10.33;;;1.67;;
4585;SDS011;2305;50.118;8.952;2022-11-02T13:31:32;4.70;;;1.73;;
4585;SDS011;2305;50.118;8.952;2022-11-02T13:34:03;4.70;;;1.60;;
4585;SDS011;2305;50.118;8.952;2022-11-02T13:36:37;9.30;;;2.37;;
4585;SDS011;2305;50.118;8.952;2022-11-02T13:39:06;7.10;;;1.60;;
4585;SDS011;2305;50.118;8.952;2022-11-02T13:41:46;4.27;;;1.73;;
4585;SDS011;2305;50.118;8.952;2022-11-02T13:47:50;10.10;;;1.80;;
4585;SDS011;2305;50.118;8.952;2022-11-02T13:50:29;4.77;;;1.70;;
4585;SDS011;2305;50.118;8.952;2022-11-02T13:52:59;3.97;;;1.67;;
4585;SDS011;2305;50.118;8.952;2022-11-02T13:55:36;9.57;;;2.20;;
4585;SDS011;2305;50.118;8.952;2022-11-02T14:00:48;6.63;;;1.83;;
4585;SDS011;2305;50.118;8.952;2022-11-02T14:03:18;5.53;;;1.80;;
4585;SDS011;2305;50.118;8.952;2022-11-02T14:05:54;5.00;;;1.50;;
4585;SDS011;2305;50.118;8.952;2022-11-02T14:08:27;6.27;;;1.50;;
4585;SDS011;2305;50.118;8.952;2022-11-02T14:11:01;8.07;;;2.00;;
4585;SDS011;2305;50.118;8.952;2022-11-02T14:16:43;8.90;;;2.00;;
4585;SDS011;2305;50.118;8.952;2022-11-02T14:19:21;5.90;;;1.70;;
4585;SDS011;2305;50.118;8.952;2022-11-02T14:22:03;7.23;;;1.63;;
4585;SDS011;2305;50.118;8.952;2022-11-02T14:24:51;8.57;;;1.77;;
4585;SDS011;2305;50.118;8.952;2022-11-02T14:27:27;6.30;;;1.93;;
4585;SDS011;2305;50.118;8.952;2022-11-02T14:29:56;13.87;;;2.10;;
4585;SDS011;2305;50.118;8.952;2022-11-02T14:32:38;8.77;;;1.77;;
4585;SDS011;2305;50.118;8.952;2022-11-02T14:35:25;10.93;;;2.27;;
4585;SDS011;2305;50.118;8.952;2022-11-02T14:38:09;8.07;;;1.50;;
4585;SDS011;2305;50.118;8.952;2022-11-02T14:40:50;11.00;;;3.17;;
4585;SDS011;2305;50.118;8.952;2022-11-02T14:43:29;5.00;;;1.63;;
4585;SDS011;2305;50.118;8.952;2022-11-02T14:46:15;7.07;;;1.87;;
4585;SDS011;2305;50.118;8.952;2022-11-02T14:48:53;9.30;;;1.80;;
4585;SDS011;2305;50.118;8.952;2022-11-02T14:51:25;8.33;;;2.03;;
4585;SDS011;2305;50.118;8.952;2022-11-02T14:53:57;5.53;;;1.93;;
4585;SDS011;2305;50.118;8.952;2022-11-02T14:56:46;4.27;;;1.63;;
4585;SDS011;2305;50.118;8.952;2022-11-02T14:59:19;4.53;;;1.67;;
4585;SDS011;2305;50.118;8.952;2022-11-02T15:01:54;5.80;;;1.70;;
4585;SDS011;2305;50.118;8.952;2022-11-02T15:04:24;7.60;;;1.63;;
4585;SDS011;2305;50.118;8.952;2022-11-02T15:06:55;7.10;;;2.10;;
4585;SDS011;2305;50.118;8.952;2022-11-02T15:12:25;4.83;;;1.43;;
4585;SDS011;2305;50.118;8.952;2022-11-02T15:14:57;10.50;;;2.03;;
4585;SDS011;2305;50.118;8.952;2022-11-02T15:20:26;7.77;;;2.67;;
4585;SDS011;2305;50.118;8.952;2022-11-02T15:23:10;10.83;;;1.90;;
4585;SDS011;2305;50.118;8.952;2022-11-02T15:25:55;8.03;;;2.37;;
4585;SDS011;2305;50.118;8.952;2022-11-02T15:28:26;5.27;;;2.00;;
4585;SDS011;2305;50.118;8.952;2022-11-02T15:30:59;7.40;;;1.97;;
4585;SDS011;2305;50.118;8.952;2022-11-02T15:33:33;6.60;;;2.30;;
4585;SDS011;2305;50.118;8.952;2022-11-02T15:36:04;12.47;;;2.43;;
4585;SDS011;2305;50.118;8.952;2022-11-02T15:38:36;9.00;;;2.20;;
4585;SDS011;2305;50.118;8.952;2022-11-02T15:41:14;5.53;;;2.17;;
4585;SDS011;2305;50.118;8.952;2022-11-02T15:43:51;8.83;;;2.90;;
4585;SDS011;2305;50.118;8.952;2022-11-02T15:46:41;11.10;;;2.50;;
4585;SDS011;2305;50.118;8.952;2022-11-02T15:49:23;11.50;;;2.60;;
4585;SDS011;2305;50.118;8.952;2022-11-02T15:52:04;10.03;;;1.80;;
4585;SDS011;2305;50.118;8.952;2022-11-02T15:54:53;8.80;;;1.90;;
4585;SDS011;2305;50.118;8.952;2022-11-02T15:57:33;6.57;;;2.70;;
4585;SDS011;2305;50.118;8.952;2022-11-02T16:00:11;11.43;;;3.40;;
4585;SDS011;2305;50.118;8.952;2022-11-02T16:02:44;8.63;;;2.10;;
4585;SDS011;2305;50.118;8.952;2022-11-02T16:05:15;9.67;;;2.90;;
4585;SDS011;2305;50.118;8.952;2022-11-02T16:07:47;8.57;;;2.20;;
4585;SDS011;2305;50.118;8.952;2022-11-02T16:10:37;8.73;;;2.50;;
4585;SDS011;2305;50.118;8.952;2022-11-02T16:13:11;6.53;;;2.03;;
4585;SDS011;2305;50.118;8.952;2022-11-02T16:15:42;8.63;;;2.20;;